createdAt,value
2018-08-16T00:02:22.080Z,100077.00
2018-08-16T00:04:51.913Z,100079.00
2018-08-16T00:07:22.065Z,100078.00
2018-08-16T00:09:52.368Z,100075.00
2018-08-16T00:12:22.351Z,100072.00
2018-08-16T00:14:53.415Z,100072.00
2018-08-16T00:17:22.704Z,100076.00
2018-08-16T00:19:54.811Z,100076.00
2018-08-16T00:22:25.002Z,100071.00
2018-08-16T00:24:54.209Z,100069.00
2018-08-16T00:27:26.889Z,100062.00
2018-08-16T00:29:58.287Z,100063.00
2018-08-16T00:32:28.108Z,100061.00
2018-08-16T00:34:58.154Z,100065.00
2018-08-16T00:37:27.355Z,100066.00
2018-08-16T00:39:56.533Z,100066.00
2018-08-16T00:42:25.746Z,100063.00
2018-08-16T00:44:55.339Z,100058.00
2018-08-16T00:47:24.575Z,100055.00
2018-08-16T00:49:53.718Z,100052.00
2018-08-16T00:52:22.956Z,100054.00
2018-08-16T00:54:52.060Z,100052.00
2018-08-16T00:57:21.285Z,100047.00
2018-08-16T00:59:50.393Z,100047.00
2018-08-16T01:02:20.014Z,100051.00
2018-08-16T01:04:49.199Z,100049.00
2018-08-16T01:07:18.379Z,100049.00
2018-08-16T01:09:47.508Z,100052.00
2018-08-16T01:12:16.814Z,100053.00
2018-08-16T01:14:45.945Z,100052.00
2018-08-16T01:17:15.178Z,100053.00
2018-08-16T01:19:44.377Z,100047.00
2018-08-16T01:22:13.817Z,100047.00
2018-08-16T01:24:42.943Z,100049.00
2018-08-16T01:27:12.201Z,100046.00
2018-08-16T01:29:41.376Z,100047.00
2018-08-16T01:32:10.569Z,100044.00
2018-08-16T01:34:40.642Z,100045.00
2018-08-16T01:37:09.797Z,100036.00
2018-08-16T01:39:39.034Z,100040.00
2018-08-16T01:42:08.317Z,100032.00
2018-08-16T01:44:37.494Z,100031.00
2018-08-16T01:47:06.560Z,100032.00
2018-08-16T01:49:37.627Z,100033.00
2018-08-16T01:52:07.065Z,100034.00
2018-08-16T01:54:36.244Z,100028.00
2018-08-16T01:57:05.318Z,100032.00
2018-08-16T01:59:34.404Z,100037.00
2018-08-16T02:02:03.514Z,100041.00
2018-08-16T02:04:32.609Z,100039.00
2018-08-16T02:07:01.707Z,100039.00
2018-08-16T02:09:30.830Z,100039.00
2018-08-16T02:12:00.085Z,100038.00
2018-08-16T02:14:29.323Z,100034.00
2018-08-16T02:16:58.391Z,100034.00
2018-08-16T02:19:27.472Z,100026.00
2018-08-16T02:21:56.597Z,100028.00
2018-08-16T02:24:25.785Z,100024.00
2018-08-16T02:26:54.908Z,100022.00
2018-08-16T02:29:24.100Z,100021.00
2018-08-16T02:31:53.229Z,100021.00
2018-08-16T02:34:22.327Z,100025.00
2018-08-16T02:36:51.512Z,100020.00
2018-08-16T02:39:20.581Z,100017.00
2018-08-16T02:41:49.789Z,100014.00
2018-08-16T02:44:19.632Z,100011.00
2018-08-16T02:46:48.815Z,100008.00
2018-08-16T02:49:17.973Z,100004.00
2018-08-16T02:51:50.005Z,100000.00
2018-08-16T02:54:19.133Z,99994.00
2018-08-16T02:56:48.220Z,99998.00
2018-08-16T02:59:17.334Z,100000.00
2018-08-16T03:01:46.399Z,100001.00
2018-08-16T03:04:15.440Z,99998.00
2018-08-16T03:06:44.557Z,99997.00
2018-08-16T03:09:13.896Z,99997.00
2018-08-16T03:11:43.074Z,99998.00
2018-08-16T03:14:12.483Z,99994.00
2018-08-16T03:16:41.920Z,99981.00
2018-08-16T03:19:11.411Z,99978.00
2018-08-16T03:21:41.967Z,99969.00
2018-08-16T03:24:15.720Z,99968.00
2018-08-16T03:26:46.823Z,99973.00
2018-08-16T03:29:19.145Z,99964.00
2018-08-16T03:31:48.529Z,99968.00
2018-08-16T03:34:21.253Z,99959.00
2018-08-16T03:36:50.866Z,99961.00
2018-08-16T03:39:21.502Z,99960.00
2018-08-16T03:41:50.896Z,99956.00
2018-08-16T03:44:20.616Z,99954.00
2018-08-16T03:46:50.234Z,99957.00
2018-08-16T03:49:22.569Z,99955.00
2018-08-16T03:51:55.621Z,99956.00
2018-08-16T03:54:25.135Z,99956.00
2018-08-16T03:56:54.300Z,99965.00
2018-08-16T03:59:23.729Z,99959.00
2018-08-16T04:01:53.990Z,99963.00
2018-08-16T04:04:23.188Z,99967.00
2018-08-16T04:06:52.447Z,99968.00
2018-08-16T04:09:21.680Z,99976.00
2018-08-16T04:11:51.064Z,99974.00
2018-08-16T04:14:20.265Z,99978.00
2018-08-16T04:16:49.507Z,99978.00
2018-08-16T04:19:19.513Z,99975.00
2018-08-16T04:21:48.789Z,99971.00
2018-08-16T04:24:18.071Z,99977.00
2018-08-16T04:26:47.327Z,99969.00
2018-08-16T04:29:16.714Z,99972.00
2018-08-16T04:31:46.812Z,99974.00
2018-08-16T04:34:16.358Z,99973.00
2018-08-16T04:36:45.535Z,99972.00
2018-08-16T04:39:14.786Z,99973.00
2018-08-16T04:41:44.448Z,99977.00
2018-08-16T04:44:13.946Z,99976.00
2018-08-16T04:46:43.076Z,99972.00
2018-08-16T04:49:12.289Z,99976.00
2018-08-16T04:51:41.606Z,99976.00
2018-08-16T04:54:11.169Z,99977.00
2018-08-16T04:56:41.114Z,99981.00
2018-08-16T04:59:14.610Z,99982.00
2018-08-16T05:01:44.526Z,99983.00
2018-08-16T05:04:14.246Z,99981.00
2018-08-16T05:06:44.775Z,99979.00
2018-08-16T05:09:14.536Z,99981.00
2018-08-16T05:11:46.654Z,99982.00
2018-08-16T05:14:18.094Z,99980.00
2018-08-16T05:16:50.177Z,99978.00
2018-08-16T05:19:19.309Z,99983.00
2018-08-16T05:21:48.760Z,99981.00
2018-08-16T05:24:18.147Z,99976.00
2018-08-16T05:26:47.696Z,99976.00
2018-08-16T05:29:16.966Z,99974.00
2018-08-16T05:31:47.609Z,99970.00
2018-08-16T05:34:18.872Z,99973.00
2018-08-16T05:36:48.253Z,99975.00
2018-08-16T05:39:18.234Z,99976.00
2018-08-16T05:41:47.288Z,99976.00
2018-08-16T05:44:17.529Z,99976.00
2018-08-16T05:46:47.027Z,99971.00
2018-08-16T05:49:17.276Z,99970.00
2018-08-16T05:51:46.741Z,99973.00
2018-08-16T05:54:16.215Z,99966.00
2018-08-16T05:56:46.084Z,99961.00
2018-08-16T05:59:15.831Z,99956.00
2018-08-16T06:01:45.410Z,99960.00
2018-08-16T06:04:15.117Z,99957.00
2018-08-16T06:06:45.518Z,99952.00
2018-08-16T06:09:15.050Z,99958.00
2018-08-16T06:11:44.384Z,99948.00
2018-08-16T06:14:13.848Z,99942.00
2018-08-16T06:16:43.128Z,99936.00
2018-08-16T06:19:12.806Z,99942.00
2018-08-16T06:21:42.758Z,99938.00
2018-08-16T06:24:12.625Z,99932.00
2018-08-16T06:26:42.807Z,99936.00
2018-08-16T06:29:13.065Z,99923.00
2018-08-16T06:31:42.231Z,99929.00
2018-08-16T06:34:11.805Z,99927.00
2018-08-16T06:36:41.613Z,99925.00
2018-08-16T06:39:14.299Z,99920.00
2018-08-16T06:41:48.002Z,99926.00
2018-08-16T06:44:23.778Z,99921.00
2018-08-16T06:46:54.962Z,99924.00
2018-08-16T06:49:24.652Z,99925.00
2018-08-16T06:51:54.501Z,99925.00
2018-08-16T06:54:24.198Z,99930.00
2018-08-16T06:56:55.946Z,99925.00
2018-08-16T06:59:25.552Z,99924.00
2018-08-16T07:01:56.222Z,99926.00
2018-08-16T07:04:26.667Z,99922.00
2018-08-16T07:06:59.590Z,99922.00
2018-08-16T07:09:29.037Z,99921.00
2018-08-16T07:11:58.501Z,99918.00
2018-08-16T07:14:28.428Z,99913.00
2018-08-16T07:17:02.467Z,99914.00
2018-08-16T07:19:32.901Z,99918.00
2018-08-16T07:22:03.796Z,99916.00
2018-08-16T07:24:35.047Z,99914.00
2018-08-16T07:27:04.561Z,99916.00
2018-08-16T07:29:33.884Z,99914.00
2018-08-16T07:32:03.873Z,99912.00
2018-08-16T07:34:33.427Z,99922.00
2018-08-16T07:37:03.188Z,99916.00
2018-08-16T07:39:32.397Z,99912.00
2018-08-16T07:42:01.645Z,99915.00
2018-08-16T07:44:30.717Z,99910.00
2018-08-16T07:46:59.909Z,99907.00
2018-08-16T07:49:29.050Z,99909.00
2018-08-16T07:52:01.136Z,99906.00
2018-08-16T07:54:31.040Z,99907.00
2018-08-16T07:57:00.208Z,99914.00
2018-08-16T07:59:29.294Z,99914.00
2018-08-16T08:01:58.461Z,99911.00
2018-08-16T08:04:27.572Z,99912.00
2018-08-16T08:06:56.705Z,99913.00
2018-08-16T08:09:25.884Z,99915.00
2018-08-16T08:11:55.046Z,99921.00
2018-08-16T08:14:25.017Z,99920.00
2018-08-16T08:16:54.621Z,99914.00
2018-08-16T08:19:23.751Z,99905.00
2018-08-16T08:21:53.968Z,99909.00
2018-08-16T08:24:23.224Z,99910.00
2018-08-16T08:26:52.409Z,99912.00
2018-08-16T08:29:21.512Z,99913.00
2018-08-16T08:31:50.687Z,99908.00
2018-08-16T08:34:19.993Z,99907.00
2018-08-16T08:37:06.240Z,99904.00
2018-08-16T08:39:36.326Z,99901.00
2018-08-16T08:42:05.515Z,99906.00
2018-08-16T08:44:34.705Z,99899.00
2018-08-16T08:47:04.470Z,99890.00
2018-08-16T08:49:33.628Z,99895.00
2018-08-16T08:52:03.601Z,99886.00
2018-08-16T08:54:52.107Z,99888.00
2018-08-16T08:57:38.488Z,99890.00
2018-08-16T09:00:08.865Z,99889.00
2018-08-16T09:02:38.462Z,99891.00
2018-08-16T09:05:08.469Z,99891.00
2018-08-16T09:07:37.949Z,99882.00
2018-08-16T09:10:56.382Z,99886.00
2018-08-16T09:13:45.470Z,99884.00
2018-08-16T09:16:21.435Z,99888.00
2018-08-16T09:18:51.451Z,99880.00
2018-08-16T09:21:21.013Z,99880.00
2018-08-16T09:23:50.424Z,99878.00
2018-08-16T09:26:25.148Z,99869.00
2018-08-16T09:28:54.870Z,99864.00
2018-08-16T09:31:41.531Z,99862.00
2018-08-16T09:34:19.293Z,99862.00
2018-08-16T09:36:48.584Z,99857.00
2018-08-16T09:39:17.750Z,99859.00
2018-08-16T09:41:47.016Z,99854.00
2018-08-16T09:44:16.260Z,99849.00
2018-08-16T09:47:07.308Z,99845.00
2018-08-16T09:49:39.208Z,99834.00
2018-08-16T09:52:09.425Z,99841.00
2018-08-16T09:54:38.750Z,99839.00
2018-08-16T09:57:09.169Z,99839.00
2018-08-16T09:59:38.614Z,99838.00
2018-08-16T10:02:10.139Z,99830.00
2018-08-16T10:04:39.332Z,99825.00
2018-08-16T10:07:08.650Z,99829.00
2018-08-16T10:09:38.787Z,99828.00
2018-08-16T10:12:08.032Z,99826.00
2018-08-16T10:14:37.432Z,99818.00
2018-08-16T10:17:06.609Z,99817.00
2018-08-16T10:19:35.689Z,99815.00
2018-08-16T10:22:05.245Z,99818.00
2018-08-16T10:24:34.463Z,99816.00
2018-08-16T10:27:04.141Z,99816.00
2018-08-16T10:29:33.734Z,99813.00
2018-08-16T10:32:03.056Z,99805.00
2018-08-16T10:34:32.432Z,99800.00
2018-08-16T10:37:01.608Z,99799.00
2018-08-16T10:39:30.780Z,99797.00
2018-08-16T10:42:00.063Z,99793.00
2018-08-16T10:44:29.242Z,99796.00
2018-08-16T10:46:58.452Z,99788.00
2018-08-16T10:49:28.800Z,99786.00
2018-08-16T10:51:58.172Z,99786.00
2018-08-16T10:54:27.590Z,99786.00
2018-08-16T10:56:57.010Z,99775.00
2018-08-16T10:59:26.465Z,99775.00
2018-08-16T11:01:55.834Z,99776.00
2018-08-16T11:04:25.043Z,99775.00
2018-08-16T11:06:55.727Z,99774.00
2018-08-16T11:09:25.060Z,99770.00
2018-08-16T11:11:54.260Z,99766.00
2018-08-16T11:14:23.683Z,99765.00
2018-08-16T11:16:53.764Z,99767.00
2018-08-16T11:19:23.066Z,99764.00
2018-08-16T11:21:52.510Z,99759.00
2018-08-16T11:24:21.998Z,99756.00
2018-08-16T11:26:51.143Z,99751.00
2018-08-16T11:29:20.356Z,99748.00
2018-08-16T11:31:49.601Z,99751.00
2018-08-16T11:34:20.222Z,99756.00
2018-08-16T11:36:49.517Z,99750.00
2018-08-16T11:39:18.950Z,99744.00
2018-08-16T11:41:48.320Z,99743.00
2018-08-16T11:44:17.569Z,99748.00
2018-08-16T11:46:46.898Z,99747.00
2018-08-16T11:49:16.088Z,99743.00
2018-08-16T11:51:46.190Z,99744.00
2018-08-16T11:54:15.774Z,99742.00
2018-08-16T11:56:45.220Z,99735.00
2018-08-16T11:59:14.421Z,99740.00
2018-08-16T12:01:43.647Z,99724.00
2018-08-16T12:04:12.877Z,99730.00
2018-08-16T12:06:42.236Z,99728.00
2018-08-16T12:09:11.558Z,99721.00
2018-08-16T12:11:42.464Z,99724.00
2018-08-16T12:14:12.099Z,99713.00
2018-08-16T12:16:41.660Z,99718.00
2018-08-16T12:19:11.233Z,99710.00
2018-08-16T12:21:40.977Z,99704.00
2018-08-16T12:24:10.668Z,99709.00
2018-08-16T12:26:40.003Z,99708.00
2018-08-16T12:29:09.366Z,99705.00
2018-08-16T12:31:39.241Z,99701.00
2018-08-16T12:34:08.470Z,99699.00
2018-08-16T12:36:37.674Z,99691.00
2018-08-16T12:39:07.478Z,99692.00
2018-08-16T12:41:36.705Z,99691.00
2018-08-16T12:44:05.774Z,99683.00
2018-08-16T12:46:34.915Z,99684.00
2018-08-16T12:49:04.056Z,99674.00
2018-08-16T12:51:33.265Z,99672.00
2018-08-16T12:54:02.510Z,99670.00
2018-08-16T12:56:31.689Z,99666.00
2018-08-16T12:59:02.174Z,99665.00
2018-08-16T13:01:31.600Z,99664.00
2018-08-16T13:04:00.907Z,99660.00
2018-08-16T13:06:30.187Z,99659.00
2018-08-16T13:08:59.393Z,99652.00
2018-08-16T13:11:28.450Z,99652.00
2018-08-16T13:13:57.618Z,99652.00
2018-08-16T13:16:26.818Z,99648.00
2018-08-16T13:18:56.019Z,99642.00
2018-08-16T13:21:25.854Z,99640.00
2018-08-16T13:23:55.025Z,99638.00
2018-08-16T13:26:24.300Z,99629.00
2018-08-16T13:28:53.761Z,99632.00
2018-08-16T13:31:23.360Z,99636.00
2018-08-16T13:33:52.476Z,99634.00
2018-08-16T13:36:22.229Z,99631.00
2018-08-16T13:38:51.549Z,99630.00
2018-08-16T13:41:21.446Z,99628.00
2018-08-16T13:43:49.857Z,99628.00
2018-08-16T13:46:18.977Z,99629.00
2018-08-16T13:48:48.312Z,99628.00
2018-08-16T13:51:17.468Z,99629.00
2018-08-16T13:53:46.712Z,99629.00
2018-08-16T13:56:16.368Z,99628.00
2018-08-16T13:58:45.824Z,99621.00
2018-08-16T14:01:15.092Z,99620.00
2018-08-16T14:03:44.424Z,99614.00
2018-08-16T14:06:13.687Z,99612.00
2018-08-16T14:08:42.940Z,99613.00
2018-08-16T14:11:14.361Z,99613.00
2018-08-16T14:13:46.186Z,99611.00
2018-08-16T14:16:17.806Z,99608.00
2018-08-16T14:18:49.800Z,99601.00
2018-08-16T14:21:19.665Z,99599.00
2018-08-16T14:23:50.002Z,99603.00
2018-08-16T14:26:20.579Z,99596.00
2018-08-16T14:28:53.047Z,99595.00
2018-08-16T14:31:23.327Z,99592.00
2018-08-16T14:33:53.217Z,99589.00
2018-08-16T14:36:24.301Z,99586.00
2018-08-16T14:38:58.435Z,99587.00
2018-08-16T14:41:32.563Z,99582.00
2018-08-16T14:44:02.351Z,99580.00
2018-08-16T14:46:35.756Z,99587.00
2018-08-16T14:49:05.246Z,99587.00
2018-08-16T14:51:34.926Z,99586.00
2018-08-16T14:54:09.235Z,99583.00
2018-08-16T14:56:39.652Z,99585.00
2018-08-16T14:59:14.131Z,99588.00
2018-08-16T15:01:44.939Z,99588.00
2018-08-16T15:04:19.506Z,99585.00
2018-08-16T15:06:50.048Z,99580.00
2018-08-16T15:09:20.800Z,99577.00
2018-08-16T15:11:51.013Z,99579.00
2018-08-16T15:14:22.349Z,99573.00
2018-08-16T15:16:52.193Z,99575.00
2018-08-16T15:19:22.922Z,99570.00
2018-08-16T15:21:53.894Z,99573.00
2018-08-16T15:24:26.083Z,99573.00
2018-08-16T15:26:58.765Z,99567.00
2018-08-16T15:29:28.627Z,99565.00
2018-08-16T15:31:59.524Z,99572.00
2018-08-16T15:34:32.308Z,99578.00
2018-08-16T15:37:05.715Z,99576.00
2018-08-16T15:39:35.243Z,99573.00
2018-08-16T15:42:04.801Z,99567.00
2018-08-16T15:44:34.452Z,99572.00
2018-08-16T15:47:12.182Z,99570.00
2018-08-16T15:49:43.153Z,99570.00
2018-08-16T15:52:15.438Z,99574.00
2018-08-16T15:54:46.552Z,99568.00
2018-08-16T15:57:17.840Z,99563.00
2018-08-16T15:59:52.421Z,99553.00
2018-08-16T16:02:28.379Z,99567.00
2018-08-16T16:04:58.078Z,99567.00
2018-08-16T16:07:29.791Z,99563.00
2018-08-16T16:10:01.211Z,99563.00
2018-08-16T16:12:36.304Z,99552.00
2018-08-16T16:15:07.637Z,99552.00
2018-08-16T16:17:37.795Z,99556.00
2018-08-16T16:20:09.756Z,99557.00
2018-08-16T16:22:42.202Z,99559.00
2018-08-16T16:25:18.662Z,99559.00
2018-08-16T16:27:48.572Z,99556.00
2018-08-16T16:30:18.620Z,99553.00
2018-08-16T16:32:50.406Z,99549.00
2018-08-16T16:35:24.802Z,99552.00
2018-08-16T16:37:56.562Z,99548.00
2018-08-16T16:40:26.665Z,99545.00
2018-08-16T16:42:58.449Z,99539.00
2018-08-16T16:45:31.656Z,99543.00
2018-08-16T16:48:01.752Z,99539.00
2018-08-16T16:50:35.860Z,99543.00
2018-08-16T16:53:15.188Z,99541.00
2018-08-16T16:55:44.604Z,99549.00
2018-08-16T16:58:13.892Z,99550.00
2018-08-16T17:00:43.742Z,99555.00
2018-08-16T17:03:20.826Z,99551.00
2018-08-16T17:05:58.829Z,99546.00
2018-08-16T17:08:28.912Z,99551.00
2018-08-16T17:11:00.466Z,99548.00
2018-08-16T17:13:30.132Z,99542.00
2018-08-16T17:16:00.070Z,99548.00
2018-08-16T17:18:29.306Z,99548.00
2018-08-16T17:20:59.620Z,99546.00
2018-08-16T17:23:42.857Z,99545.00
2018-08-16T17:26:12.906Z,99544.00
2018-08-16T17:28:48.302Z,99539.00
2018-08-16T17:31:18.186Z,99540.00
2018-08-16T17:34:03.965Z,99543.00
2018-08-16T17:36:36.910Z,99543.00
2018-08-16T17:39:09.460Z,99540.00
2018-08-16T17:41:39.390Z,99541.00
2018-08-16T17:44:10.869Z,99541.00
2018-08-16T17:46:43.982Z,99537.00
2018-08-16T17:49:13.623Z,99538.00
2018-08-16T17:51:58.229Z,99542.00
2018-08-16T17:54:28.268Z,99539.00
2018-08-16T17:56:58.027Z,99541.00
2018-08-16T17:59:27.572Z,99540.00
2018-08-16T18:01:57.182Z,99538.00
2018-08-16T18:04:27.032Z,99539.00
2018-08-16T18:07:00.666Z,99537.00
2018-08-16T18:09:31.502Z,99540.00
2018-08-16T18:12:04.781Z,99540.00
2018-08-16T18:14:34.309Z,99534.00
2018-08-16T18:17:11.606Z,99536.00
2018-08-16T18:19:45.881Z,99541.00
2018-08-16T18:22:15.440Z,99543.00
2018-08-16T18:24:48.976Z,99554.00
2018-08-16T18:27:21.362Z,99549.00
2018-08-16T18:30:00.297Z,99551.00
2018-08-16T18:32:31.173Z,99550.00
2018-08-16T18:35:01.114Z,99552.00
2018-08-16T18:37:33.727Z,99560.00
2018-08-16T18:40:09.536Z,99561.00
2018-08-16T18:42:57.552Z,99562.00
2018-08-16T18:45:56.770Z,99561.00
2018-08-16T18:48:27.144Z,99559.00
2018-08-16T18:51:10.614Z,99560.00
2018-08-16T18:53:55.798Z,99570.00
2018-08-16T18:56:25.252Z,99571.00
2018-08-16T18:59:00.013Z,99578.00
2018-08-16T19:01:35.555Z,99575.00
2018-08-16T19:04:10.962Z,99577.00
2018-08-16T19:06:42.241Z,99577.00
2018-08-16T19:09:11.797Z,99583.00
2018-08-16T19:11:45.430Z,99575.00
2018-08-16T19:14:15.605Z,99580.00
2018-08-16T19:16:45.538Z,99578.00
2018-08-16T19:19:16.778Z,99586.00
2018-08-16T19:21:46.558Z,99587.00
2018-08-16T19:24:16.816Z,99589.00
2018-08-16T19:26:48.075Z,99593.00
2018-08-16T19:29:18.088Z,99591.00
2018-08-16T19:31:47.807Z,99592.00
2018-08-16T19:34:17.675Z,99596.00
2018-08-16T19:36:50.088Z,99595.00
2018-08-16T19:39:20.483Z,99598.00
2018-08-16T19:41:54.179Z,99595.00
2018-08-16T19:44:26.517Z,99597.00
2018-08-16T19:47:02.996Z,99593.00
2018-08-16T19:49:35.511Z,99593.00
2018-08-16T19:52:04.912Z,99595.00
2018-08-16T19:54:34.937Z,99590.00
2018-08-16T19:57:05.849Z,99591.00
2018-08-16T19:59:37.991Z,99595.00
2018-08-16T20:02:09.141Z,99595.00
2018-08-16T20:04:38.982Z,99594.00
2018-08-16T20:07:09.605Z,99590.00
2018-08-16T20:09:41.287Z,99592.00
2018-08-16T20:12:13.386Z,99595.00
2018-08-16T20:14:44.784Z,99595.00
2018-08-16T20:17:19.766Z,99593.00
2018-08-16T20:19:52.629Z,99591.00
2018-08-16T20:22:24.384Z,99595.00
2018-08-16T20:24:56.833Z,99598.00
2018-08-16T20:27:30.473Z,99594.00
2018-08-16T20:30:01.024Z,99600.00
2018-08-16T20:32:33.085Z,99598.00
2018-08-16T20:35:05.521Z,99595.00
2018-08-16T20:37:34.899Z,99597.00
2018-08-16T20:40:07.515Z,99602.00
2018-08-16T20:42:36.759Z,99597.00
2018-08-16T20:45:08.855Z,99596.00
2018-08-16T20:47:41.094Z,99597.00
2018-08-16T20:50:10.966Z,99605.00
2018-08-16T20:52:42.468Z,99602.00
2018-08-16T20:55:12.917Z,99600.00
2018-08-16T20:57:42.958Z,99604.00
2018-08-16T21:00:13.302Z,99608.00
2018-08-16T21:02:44.717Z,99612.00
2018-08-16T21:05:21.469Z,99616.00
2018-08-16T21:07:52.876Z,99615.00
2018-08-16T21:10:25.805Z,99609.00
2018-08-16T21:12:59.388Z,99614.00
2018-08-16T21:15:31.484Z,99619.00
2018-08-16T21:18:02.119Z,99620.00
2018-08-16T21:20:36.410Z,99617.00
2018-08-16T21:23:08.616Z,99617.00
2018-08-16T21:25:46.352Z,99621.00
2018-08-16T21:28:19.212Z,99616.00
2018-08-16T21:30:49.532Z,99618.00
2018-08-16T21:33:29.668Z,99622.00
2018-08-16T21:36:02.874Z,99623.00
2018-08-16T21:38:32.068Z,99621.00
2018-08-16T21:41:01.510Z,99625.00
2018-08-16T21:43:31.187Z,99624.00
2018-08-16T21:46:10.406Z,99626.00
2018-08-16T21:48:41.030Z,99630.00
2018-08-16T21:51:11.823Z,99631.00
2018-08-16T21:53:42.471Z,99632.00
2018-08-16T21:56:14.813Z,99636.00
2018-08-16T21:58:47.427Z,99635.00
2018-08-16T22:01:23.272Z,99634.00
2018-08-16T22:03:54.323Z,99635.00
2018-08-16T22:07:07.471Z,99640.00
2018-08-16T22:09:38.609Z,99636.00
2018-08-16T22:12:08.588Z,99635.00
2018-08-16T22:14:38.296Z,99629.00
2018-08-16T22:17:10.610Z,99637.00
2018-08-16T22:19:41.663Z,99636.00
2018-08-16T22:22:14.378Z,99636.00
2018-08-16T22:24:44.243Z,99636.00
2018-08-16T22:27:15.591Z,99638.00
2018-08-16T22:29:50.072Z,99636.00
2018-08-16T22:32:23.510Z,99636.00
2018-08-16T22:34:53.161Z,99636.00
2018-08-16T22:37:24.315Z,99641.00
2018-08-16T22:39:55.967Z,99642.00
2018-08-16T22:42:25.448Z,99639.00
2018-08-16T22:44:57.096Z,99641.00
2018-08-16T22:47:26.710Z,99647.00
2018-08-16T22:50:02.226Z,99646.00
2018-08-16T22:52:34.668Z,99648.00
2018-08-16T22:55:08.103Z,99646.00
2018-08-16T22:57:48.705Z,99637.00
2018-08-16T23:00:19.126Z,99640.00
2018-08-16T23:02:48.754Z,99636.00
2018-08-16T23:05:18.217Z,99633.00
2018-08-16T23:07:47.880Z,99633.00
2018-08-16T23:10:17.884Z,99629.00
2018-08-16T23:12:47.684Z,99626.00
2018-08-16T23:15:19.722Z,99623.00
2018-08-16T23:17:52.031Z,99624.00
2018-08-16T23:20:25.589Z,99619.00
2018-08-16T23:22:57.169Z,99624.00
2018-08-16T23:25:27.892Z,99621.00
2018-08-16T23:27:59.608Z,99623.00
2018-08-16T23:30:29.064Z,99627.00
2018-08-16T23:32:59.990Z,99621.00
2018-08-16T23:35:29.143Z,99624.00
2018-08-16T23:37:58.523Z,99623.00
2018-08-16T23:40:28.476Z,99622.00
2018-08-16T23:42:58.514Z,99625.00
2018-08-16T23:45:28.428Z,99624.00
2018-08-16T23:48:17.055Z,99621.00
2018-08-16T23:50:49.249Z,99621.00
2018-08-16T23:53:20.338Z,99615.00
2018-08-16T23:55:54.035Z,99619.00
2018-08-16T23:58:24.174Z,99610.00
